sensor_id;sensor_type;location;lat;lon;timestamp;P1;durP1;ratioP1;P2;durP2;ratioP2
2035;SDS011;23642;42.658;23.350;2024-01-07T00:01:53;104.03;;;97.57;;
2035;SDS011;23642;42.658;23.350;2024-01-07T00:04:27;106.40;;;99.37;;
2035;SDS011;23642;42.658;23.350;2024-01-07T00:06:58;106.40;;;99.60;;
2035;SDS011;23642;42.658;23.350;2024-01-07T00:09:28;104.57;;;97.90;;
2035;SDS011;23642;42.658;23.350;2024-01-07T00:12:00;105.90;;;99.20;;
2035;SDS011;23642;42.658;23.350;2024-01-07T00:14:35;104.57;;;98.07;;
2035;SDS011;23642;42.658;23.350;2024-01-07T00:17:03;107.07;;;99.87;;
2035;SDS011;23642;42.658;23.350;2024-01-07T00:19:40;109.67;;;101.93;;
2035;SDS011;23642;42.658;23.350;2024-01-07T00:22:12;117.77;;;109.67;;
2035;SDS011;23642;42.658;23.350;2024-01-07T00:24:58;117.77;;;109.93;;
2035;SDS011;23642;42.658;23.350;2024-01-07T00:27:29;117.33;;;108.53;;
2035;SDS011;23642;42.658;23.350;2024-01-07T00:30:05;116.30;;;108.10;;
2035;SDS011;23642;42.658;23.350;2024-01-07T00:32:40;121.20;;;112.50;;
2035;SDS011;23642;42.658;23.350;2024-01-07T00:35:16;116.63;;;107.73;;
2035;SDS011;23642;42.658;23.350;2024-01-07T00:37:45;114.70;;;106.80;;
2035;SDS011;23642;42.658;23.350;2024-01-07T00:40:12;116.93;;;108.97;;
2035;SDS011;23642;42.658;23.350;2024-01-07T00:42:46;119.10;;;110.70;;
2035;SDS011;23642;42.658;23.350;2024-01-07T00:45:18;118.47;;;110.40;;
2035;SDS011;23642;42.658;23.350;2024-01-07T00:47:52;120.13;;;111.50;;
2035;SDS011;23642;42.658;23.350;2024-01-07T00:50:25;117.30;;;109.00;;
2035;SDS011;23642;42.658;23.350;2024-01-07T00:52:54;120.00;;;111.43;;
2035;SDS011;23642;42.658;23.350;2024-01-07T00:55:24;118.97;;;110.60;;
2035;SDS011;23642;42.658;23.350;2024-01-07T00:57:56;118.30;;;109.37;;
2035;SDS011;23642;42.658;23.350;2024-01-07T01:00:33;116.63;;;108.53;;
2035;SDS011;23642;42.658;23.350;2024-01-07T01:03:10;118.73;;;110.03;;
2035;SDS011;23642;42.658;23.350;2024-01-07T01:05:39;118.60;;;109.90;;
2035;SDS011;23642;42.658;23.350;2024-01-07T01:08:07;120.33;;;111.73;;
2035;SDS011;23642;42.658;23.350;2024-01-07T01:10:39;118.23;;;109.70;;
2035;SDS011;23642;42.658;23.350;2024-01-07T01:13:11;119.80;;;111.40;;
2035;SDS011;23642;42.658;23.350;2024-01-07T01:15:47;119.23;;;110.50;;
2035;SDS011;23642;42.658;23.350;2024-01-07T01:18:26;122.20;;;113.67;;
2035;SDS011;23642;42.658;23.350;2024-01-07T01:20:55;119.90;;;111.23;;
2035;SDS011;23642;42.658;23.350;2024-01-07T01:26:46;120.97;;;112.40;;
2035;SDS011;23642;42.658;23.350;2024-01-07T01:29:22;124.83;;;115.47;;
2035;SDS011;23642;42.658;23.350;2024-01-07T01:32:00;122.40;;;113.67;;
2035;SDS011;23642;42.658;23.350;2024-01-07T01:34:40;119.37;;;110.83;;
2035;SDS011;23642;42.658;23.350;2024-01-07T01:37:19;121.73;;;112.97;;
2035;SDS011;23642;42.658;23.350;2024-01-07T01:39:53;121.57;;;112.83;;
2035;SDS011;23642;42.658;23.350;2024-01-07T01:42:42;119.67;;;111.37;;
2035;SDS011;23642;42.658;23.350;2024-01-07T01:45:20;121.87;;;113.30;;
2035;SDS011;23642;42.658;23.350;2024-01-07T01:47:49;123.77;;;114.77;;
2035;SDS011;23642;42.658;23.350;2024-01-07T01:50:23;120.97;;;112.80;;
2035;SDS011;23642;42.658;23.350;2024-01-07T01:52:53;117.50;;;109.70;;
2035;SDS011;23642;42.658;23.350;2024-01-07T01:55:23;110.77;;;103.67;;
2035;SDS011;23642;42.658;23.350;2024-01-07T01:57:53;109.20;;;101.90;;
2035;SDS011;23642;42.658;23.350;2024-01-07T02:00:31;109.83;;;102.30;;
2035;SDS011;23642;42.658;23.350;2024-01-07T02:03:01;107.47;;;100.33;;
2035;SDS011;23642;42.658;23.350;2024-01-07T02:05:31;108.17;;;100.83;;
2035;SDS011;23642;42.658;23.350;2024-01-07T02:08:10;106.37;;;99.77;;
2035;SDS011;23642;42.658;23.350;2024-01-07T02:11:15;103.80;;;97.30;;
2035;SDS011;23642;42.658;23.350;2024-01-07T02:13:48;105.30;;;98.60;;
2035;SDS011;23642;42.658;23.350;2024-01-07T02:16:35;105.73;;;98.93;;
2035;SDS011;23642;42.658;23.350;2024-01-07T02:19:21;103.23;;;96.63;;
2035;SDS011;23642;42.658;23.350;2024-01-07T02:21:53;105.33;;;98.73;;
2035;SDS011;23642;42.658;23.350;2024-01-07T02:24:40;105.67;;;98.80;;
2035;SDS011;23642;42.658;23.350;2024-01-07T02:27:20;104.37;;;97.97;;
2035;SDS011;23642;42.658;23.350;2024-01-07T02:30:06;105.93;;;99.03;;
2035;SDS011;23642;42.658;23.350;2024-01-07T02:32:42;104.97;;;98.33;;
2035;SDS011;23642;42.658;23.350;2024-01-07T02:35:12;105.73;;;99.17;;
2035;SDS011;23642;42.658;23.350;2024-01-07T02:37:42;104.07;;;97.17;;
2035;SDS011;23642;42.658;23.350;2024-01-07T02:41:07;105.47;;;98.53;;
2035;SDS011;23642;42.658;23.350;2024-01-07T02:43:40;106.40;;;99.60;;
2035;SDS011;23642;42.658;23.350;2024-01-07T02:46:15;104.63;;;98.10;;
2035;SDS011;23642;42.658;23.350;2024-01-07T02:48:48;104.97;;;98.43;;
2035;SDS011;23642;42.658;23.350;2024-01-07T02:51:18;106.03;;;99.43;;
2035;SDS011;23642;42.658;23.350;2024-01-07T02:53:45;101.40;;;95.20;;
2035;SDS011;23642;42.658;23.350;2024-01-07T02:56:36;99.33;;;93.13;;
2035;SDS011;23642;42.658;23.350;2024-01-07T02:59:08;101.17;;;94.77;;
2035;SDS011;23642;42.658;23.350;2024-01-07T03:01:47;101.57;;;95.07;;
2035;SDS011;23642;42.658;23.350;2024-01-07T03:04:49;103.77;;;97.27;;
2035;SDS011;23642;42.658;23.350;2024-01-07T03:07:22;103.60;;;97.30;;
2035;SDS011;23642;42.658;23.350;2024-01-07T03:09:53;105.20;;;98.37;;
2035;SDS011;23642;42.658;23.350;2024-01-07T03:12:31;105.80;;;99.03;;
2035;SDS011;23642;42.658;23.350;2024-01-07T03:15:10;103.70;;;97.30;;
2035;SDS011;23642;42.658;23.350;2024-01-07T03:17:48;104.47;;;97.93;;
2035;SDS011;23642;42.658;23.350;2024-01-07T03:20:18;106.40;;;99.83;;
2035;SDS011;23642;42.658;23.350;2024-01-07T03:22:50;107.30;;;99.97;;
2035;SDS011;23642;42.658;23.350;2024-01-07T03:25:24;105.73;;;99.23;;
2035;SDS011;23642;42.658;23.350;2024-01-07T03:28:15;106.90;;;99.57;;
2035;SDS011;23642;42.658;23.350;2024-01-07T03:31:12;108.87;;;101.90;;
2035;SDS011;23642;42.658;23.350;2024-01-07T03:33:59;108.43;;;101.53;;
2035;SDS011;23642;42.658;23.350;2024-01-07T03:36:47;110.40;;;103.60;;
2035;SDS011;23642;42.658;23.350;2024-01-07T03:39:26;110.00;;;103.10;;
2035;SDS011;23642;42.658;23.350;2024-01-07T03:41:56;111.77;;;104.80;;
2035;SDS011;23642;42.658;23.350;2024-01-07T03:44:40;115.23;;;107.80;;
2035;SDS011;23642;42.658;23.350;2024-01-07T03:47:11;118.73;;;110.70;;
2035;SDS011;23642;42.658;23.350;2024-01-07T03:49:52;117.93;;;110.33;;
2035;SDS011;23642;42.658;23.350;2024-01-07T03:52:19;117.57;;;109.97;;
2035;SDS011;23642;42.658;23.350;2024-01-07T03:54:52;118.40;;;110.70;;
2035;SDS011;23642;42.658;23.350;2024-01-07T03:57:27;115.40;;;107.57;;
2035;SDS011;23642;42.658;23.350;2024-01-07T03:59:59;116.10;;;108.50;;
2035;SDS011;23642;42.658;23.350;2024-01-07T04:02:30;114.90;;;107.50;;
2035;SDS011;23642;42.658;23.350;2024-01-07T04:05:06;116.10;;;108.47;;
2035;SDS011;23642;42.658;23.350;2024-01-07T04:07:48;112.70;;;105.47;;
2035;SDS011;23642;42.658;23.350;2024-01-07T04:10:41;113.40;;;105.57;;
2035;SDS011;23642;42.658;23.350;2024-01-07T04:13:22;111.87;;;104.27;;
2035;SDS011;23642;42.658;23.350;2024-01-07T04:16:02;107.87;;;100.97;;
2035;SDS011;23642;42.658;23.350;2024-01-07T04:18:31;110.57;;;103.17;;
2035;SDS011;23642;42.658;23.350;2024-01-07T04:21:00;107.37;;;100.43;;
2035;SDS011;23642;42.658;23.350;2024-01-07T04:23:41;107.53;;;100.43;;
2035;SDS011;23642;42.658;23.350;2024-01-07T04:26:26;105.97;;;99.33;;
2035;SDS011;23642;42.658;23.350;2024-01-07T04:28:57;108.67;;;101.63;;
2035;SDS011;23642;42.658;23.350;2024-01-07T04:31:28;107.77;;;100.97;;
2035;SDS011;23642;42.658;23.350;2024-01-07T04:34:03;107.73;;;100.30;;
2035;SDS011;23642;42.658;23.350;2024-01-07T04:36:37;105.93;;;99.03;;
2035;SDS011;23642;42.658;23.350;2024-01-07T04:39:05;105.00;;;98.53;;
2035;SDS011;23642;42.658;23.350;2024-01-07T04:41:35;104.67;;;97.87;;
2035;SDS011;23642;42.658;23.350;2024-01-07T04:44:15;106.47;;;99.60;;
2035;SDS011;23642;42.658;23.350;2024-01-07T04:46:47;107.87;;;100.97;;
2035;SDS011;23642;42.658;23.350;2024-01-07T04:49:29;102.47;;;96.17;;
2035;SDS011;23642;42.658;23.350;2024-01-07T04:51:59;105.60;;;98.80;;
2035;SDS011;23642;42.658;23.350;2024-01-07T04:54:29;104.03;;;97.63;;
2035;SDS011;23642;42.658;23.350;2024-01-07T04:56:58;100.37;;;94.13;;
2035;SDS011;23642;42.658;23.350;2024-01-07T04:59:42;101.20;;;95.10;;
2035;SDS011;23642;42.658;23.350;2024-01-07T05:02:20;101.53;;;95.17;;
2035;SDS011;23642;42.658;23.350;2024-01-07T05:04:47;104.03;;;97.20;;
2035;SDS011;23642;42.658;23.350;2024-01-07T05:07:22;101.40;;;94.80;;
2035;SDS011;23642;42.658;23.350;2024-01-07T05:09:53;104.00;;;97.70;;
2035;SDS011;23642;42.658;23.350;2024-01-07T05:12:38;100.67;;;94.37;;
2035;SDS011;23642;42.658;23.350;2024-01-07T05:15:14;102.33;;;96.03;;
2035;SDS011;23642;42.658;23.350;2024-01-07T05:17:49;104.63;;;97.60;;
2035;SDS011;23642;42.658;23.350;2024-01-07T05:20:17;103.70;;;97.30;;
2035;SDS011;23642;42.658;23.350;2024-01-07T05:22:48;102.50;;;95.67;;
2035;SDS011;23642;42.658;23.350;2024-01-07T05:25:41;101.20;;;94.70;;
2035;SDS011;23642;42.658;23.350;2024-01-07T05:31:14;104.23;;;97.83;;
2035;SDS011;23642;42.658;23.350;2024-01-07T05:34:01;106.03;;;99.33;;
2035;SDS011;23642;42.658;23.350;2024-01-07T05:36:45;102.40;;;95.70;;
2035;SDS011;23642;42.658;23.350;2024-01-07T05:39:20;104.70;;;98.10;;
2035;SDS011;23642;42.658;23.350;2024-01-07T05:41:49;102.33;;;95.37;;
2035;SDS011;23642;42.658;23.350;2024-01-07T05:44:17;103.67;;;97.00;;
2035;SDS011;23642;42.658;23.350;2024-01-07T05:46:48;103.80;;;97.10;;
2035;SDS011;23642;42.658;23.350;2024-01-07T05:49:32;102.10;;;95.73;;
2035;SDS011;23642;42.658;23.350;2024-01-07T05:52:04;100.20;;;94.00;;
2035;SDS011;23642;42.658;23.350;2024-01-07T05:54:37;104.23;;;97.70;;
2035;SDS011;23642;42.658;23.350;2024-01-07T05:57:06;102.20;;;95.40;;
2035;SDS011;23642;42.658;23.350;2024-01-07T05:59:33;102.63;;;96.30;;
2035;SDS011;23642;42.658;23.350;2024-01-07T06:02:02;106.40;;;99.53;;
2035;SDS011;23642;42.658;23.350;2024-01-07T06:04:32;106.90;;;100.10;;
2035;SDS011;23642;42.658;23.350;2024-01-07T06:07:05;106.93;;;100.13;;
2035;SDS011;23642;42.658;23.350;2024-01-07T06:09:40;107.47;;;100.37;;
2035;SDS011;23642;42.658;23.350;2024-01-07T06:12:15;105.07;;;98.47;;
2035;SDS011;23642;42.658;23.350;2024-01-07T06:14:53;103.03;;;96.27;;
2035;SDS011;23642;42.658;23.350;2024-01-07T06:17:22;104.47;;;97.53;;
2035;SDS011;23642;42.658;23.350;2024-01-07T06:19:54;104.00;;;97.53;;
2035;SDS011;23642;42.658;23.350;2024-01-07T06:22:26;104.07;;;97.57;;
2035;SDS011;23642;42.658;23.350;2024-01-07T06:25:01;103.67;;;96.97;;
2035;SDS011;23642;42.658;23.350;2024-01-07T06:27:42;106.60;;;99.57;;
2035;SDS011;23642;42.658;23.350;2024-01-07T06:30:12;111.27;;;103.43;;
2035;SDS011;23642;42.658;23.350;2024-01-07T06:32:43;107.30;;;100.30;;
2035;SDS011;23642;42.658;23.350;2024-01-07T06:35:20;106.77;;;99.87;;
2035;SDS011;23642;42.658;23.350;2024-01-07T06:38:00;108.20;;;101.30;;
2035;SDS011;23642;42.658;23.350;2024-01-07T06:40:37;109.07;;;101.77;;
2035;SDS011;23642;42.658;23.350;2024-01-07T06:43:05;108.70;;;101.70;;
2035;SDS011;23642;42.658;23.350;2024-01-07T06:45:32;111.03;;;102.90;;
2035;SDS011;23642;42.658;23.350;2024-01-07T06:48:03;110.00;;;103.00;;
2035;SDS011;23642;42.658;23.350;2024-01-07T06:50:44;111.40;;;104.20;;
2035;SDS011;23642;42.658;23.350;2024-01-07T06:53:16;109.60;;;102.40;;
2035;SDS011;23642;42.658;23.350;2024-01-07T06:55:44;110.87;;;103.57;;
2035;SDS011;23642;42.658;23.350;2024-01-07T06:58:18;112.87;;;105.33;;
2035;SDS011;23642;42.658;23.350;2024-01-07T07:00:46;109.30;;;101.90;;
2035;SDS011;23642;42.658;23.350;2024-01-07T07:03:21;110.57;;;103.30;;
2035;SDS011;23642;42.658;23.350;2024-01-07T07:05:55;110.93;;;103.20;;
2035;SDS011;23642;42.658;23.350;2024-01-07T07:08:25;107.10;;;100.10;;
2035;SDS011;23642;42.658;23.350;2024-01-07T07:10:53;111.87;;;104.37;;
2035;SDS011;23642;42.658;23.350;2024-01-07T07:13:23;109.90;;;102.70;;
2035;SDS011;23642;42.658;23.350;2024-01-07T07:16:07;111.50;;;104.10;;
2035;SDS011;23642;42.658;23.350;2024-01-07T07:18:34;111.63;;;104.30;;
2035;SDS011;23642;42.658;23.350;2024-01-07T07:21:11;113.07;;;105.17;;
2035;SDS011;23642;42.658;23.350;2024-01-07T07:23:40;111.27;;;103.80;;
2035;SDS011;23642;42.658;23.350;2024-01-07T07:26:10;111.00;;;103.33;;
2035;SDS011;23642;42.658;23.350;2024-01-07T07:28:54;111.70;;;104.27;;
2035;SDS011;23642;42.658;23.350;2024-01-07T07:31:23;114.90;;;107.20;;
2035;SDS011;23642;42.658;23.350;2024-01-07T07:33:51;114.10;;;106.43;;
2035;SDS011;23642;42.658;23.350;2024-01-07T07:36:24;115.03;;;107.37;;
2035;SDS011;23642;42.658;23.350;2024-01-07T07:38:52;112.97;;;105.67;;
2035;SDS011;23642;42.658;23.350;2024-01-07T07:41:34;112.97;;;105.70;;
2035;SDS011;23642;42.658;23.350;2024-01-07T07:44:07;114.80;;;107.40;;
2035;SDS011;23642;42.658;23.350;2024-01-07T07:46:36;116.40;;;108.50;;
2035;SDS011;23642;42.658;23.350;2024-01-07T07:49:05;116.27;;;108.27;;
2035;SDS011;23642;42.658;23.350;2024-01-07T07:51:34;115.37;;;107.80;;
2035;SDS011;23642;42.658;23.350;2024-01-07T07:54:04;113.17;;;105.97;;
2035;SDS011;23642;42.658;23.350;2024-01-07T07:56:37;116.47;;;108.83;;
2035;SDS011;23642;42.658;23.350;2024-01-07T07:59:06;114.20;;;106.90;;
2035;SDS011;23642;42.658;23.350;2024-01-07T08:01:37;113.03;;;105.63;;
2035;SDS011;23642;42.658;23.350;2024-01-07T08:04:14;114.47;;;107.07;;
2035;SDS011;23642;42.658;23.350;2024-01-07T08:06:44;112.23;;;105.03;;
2035;SDS011;23642;42.658;23.350;2024-01-07T08:09:14;113.50;;;106.17;;
2035;SDS011;23642;42.658;23.350;2024-01-07T08:11:46;116.33;;;108.90;;
2035;SDS011;23642;42.658;23.350;2024-01-07T08:14:17;118.83;;;111.13;;
2035;SDS011;23642;42.658;23.350;2024-01-07T08:16:46;117.10;;;109.60;;
2035;SDS011;23642;42.658;23.350;2024-01-07T08:19:13;116.53;;;109.07;;
2035;SDS011;23642;42.658;23.350;2024-01-07T08:21:51;117.30;;;109.80;;
2035;SDS011;23642;42.658;23.350;2024-01-07T08:24:23;118.87;;;110.97;;
2035;SDS011;23642;42.658;23.350;2024-01-07T08:26:54;118.67;;;111.00;;
2035;SDS011;23642;42.658;23.350;2024-01-07T08:29:26;119.43;;;111.63;;
2035;SDS011;23642;42.658;23.350;2024-01-07T08:32:03;121.20;;;112.80;;
2035;SDS011;23642;42.658;23.350;2024-01-07T08:34:33;118.27;;;110.53;;
2035;SDS011;23642;42.658;23.350;2024-01-07T08:37:07;118.57;;;110.87;;
2035;SDS011;23642;42.658;23.350;2024-01-07T08:39:37;116.70;;;109.27;;
2035;SDS011;23642;42.658;23.350;2024-01-07T08:42:08;117.47;;;110.07;;
2035;SDS011;23642;42.658;23.350;2024-01-07T08:44:37;121.80;;;113.80;;
2035;SDS011;23642;42.658;23.350;2024-01-07T08:47:05;118.97;;;111.37;;
2035;SDS011;23642;42.658;23.350;2024-01-07T08:49:32;118.97;;;111.07;;
2035;SDS011;23642;42.658;23.350;2024-01-07T08:52:01;123.70;;;115.37;;
2035;SDS011;23642;42.658;23.350;2024-01-07T08:54:31;120.20;;;111.80;;
2035;SDS011;23642;42.658;23.350;2024-01-07T08:57:00;122.77;;;114.43;;
2035;SDS011;23642;42.658;23.350;2024-01-07T08:59:29;123.00;;;114.90;;
2035;SDS011;23642;42.658;23.350;2024-01-07T09:02:02;126.93;;;118.60;;
2035;SDS011;23642;42.658;23.350;2024-01-07T09:04:33;125.43;;;117.27;;
2035;SDS011;23642;42.658;23.350;2024-01-07T09:07:12;127.13;;;118.83;;
2035;SDS011;23642;42.658;23.350;2024-01-07T09:09:43;122.53;;;114.53;;
2035;SDS011;23642;42.658;23.350;2024-01-07T09:12:10;124.43;;;116.03;;
2035;SDS011;23642;42.658;23.350;2024-01-07T09:14:41;123.30;;;115.10;;
2035;SDS011;23642;42.658;23.350;2024-01-07T09:17:13;125.40;;;117.00;;
2035;SDS011;23642;42.658;23.350;2024-01-07T09:19:42;124.70;;;116.40;;
2035;SDS011;23642;42.658;23.350;2024-01-07T09:22:09;122.23;;;114.13;;
2035;SDS011;23642;42.658;23.350;2024-01-07T09:24:37;125.40;;;116.80;;
2035;SDS011;23642;42.658;23.350;2024-01-07T09:27:08;121.63;;;113.60;;
2035;SDS011;23642;42.658;23.350;2024-01-07T09:29:36;124.10;;;115.50;;
2035;SDS011;23642;42.658;23.350;2024-01-07T09:32:07;123.90;;;115.80;;
2035;SDS011;23642;42.658;23.350;2024-01-07T09:34:35;120.67;;;112.43;;
2035;SDS011;23642;42.658;23.350;2024-01-07T09:37:06;122.00;;;113.60;;
2035;SDS011;23642;42.658;23.350;2024-01-07T09:39:38;120.67;;;112.93;;
2035;SDS011;23642;42.658;23.350;2024-01-07T09:42:12;123.10;;;115.20;;
2035;SDS011;23642;42.658;23.350;2024-01-07T09:44:40;123.60;;;115.40;;
2035;SDS011;23642;42.658;23.350;2024-01-07T09:47:10;125.77;;;117.17;;
2035;SDS011;23642;42.658;23.350;2024-01-07T09:49:41;126.83;;;118.43;;
2035;SDS011;23642;42.658;23.350;2024-01-07T09:52:10;127.60;;;119.20;;
2035;SDS011;23642;42.658;23.350;2024-01-07T09:54:39;127.93;;;119.53;;
2035;SDS011;23642;42.658;23.350;2024-01-07T09:57:07;125.53;;;117.10;;
2035;SDS011;23642;42.658;23.350;2024-01-07T09:59:42;126.83;;;118.37;;
2035;SDS011;23642;42.658;23.350;2024-01-07T10:02:13;127.63;;;119.20;;
2035;SDS011;23642;42.658;23.350;2024-01-07T10:04:44;127.37;;;118.80;;
2035;SDS011;23642;42.658;23.350;2024-01-07T10:07:20;126.00;;;117.43;;
2035;SDS011;23642;42.658;23.350;2024-01-07T10:10:21;126.27;;;117.90;;
2035;SDS011;23642;42.658;23.350;2024-01-07T10:12:54;122.97;;;114.57;;
2035;SDS011;23642;42.658;23.350;2024-01-07T10:15:26;124.60;;;116.70;;
2035;SDS011;23642;42.658;23.350;2024-01-07T10:18:00;125.00;;;116.57;;
2035;SDS011;23642;42.658;23.350;2024-01-07T10:20:32;127.10;;;118.80;;
2035;SDS011;23642;42.658;23.350;2024-01-07T10:23:01;125.70;;;117.60;;
2035;SDS011;23642;42.658;23.350;2024-01-07T10:25:30;128.53;;;119.03;;
2035;SDS011;23642;42.658;23.350;2024-01-07T10:28:05;128.50;;;119.67;;
2035;SDS011;23642;42.658;23.350;2024-01-07T10:30:39;129.70;;;120.93;;
2035;SDS011;23642;42.658;23.350;2024-01-07T10:33:07;125.30;;;116.17;;
2035;SDS011;23642;42.658;23.350;2024-01-07T10:35:40;127.93;;;118.83;;
2035;SDS011;23642;42.658;23.350;2024-01-07T10:38:18;128.60;;;119.90;;
2035;SDS011;23642;42.658;23.350;2024-01-07T10:40:49;126.43;;;117.70;;
2035;SDS011;23642;42.658;23.350;2024-01-07T10:43:19;130.07;;;120.57;;
2035;SDS011;23642;42.658;23.350;2024-01-07T10:45:54;125.33;;;116.70;;
2035;SDS011;23642;42.658;23.350;2024-01-07T10:48:22;127.73;;;118.17;;
2035;SDS011;23642;42.658;23.350;2024-01-07T10:50:54;129.43;;;120.80;;
2035;SDS011;23642;42.658;23.350;2024-01-07T10:53:34;128.50;;;119.60;;
2035;SDS011;23642;42.658;23.350;2024-01-07T10:56:16;127.83;;;119.10;;
2035;SDS011;23642;42.658;23.350;2024-01-07T10:58:50;130.23;;;118.93;;
2035;SDS011;23642;42.658;23.350;2024-01-07T11:01:27;129.67;;;120.00;;
2035;SDS011;23642;42.658;23.350;2024-01-07T11:03:59;130.10;;;120.10;;
2035;SDS011;23642;42.658;23.350;2024-01-07T11:06:36;126.50;;;117.90;;
2035;SDS011;23642;42.658;23.350;2024-01-07T11:09:16;125.67;;;117.30;;
2035;SDS011;23642;42.658;23.350;2024-01-07T11:11:49;125.50;;;117.30;;
2035;SDS011;23642;42.658;23.350;2024-01-07T11:14:36;127.33;;;118.00;;
2035;SDS011;23642;42.658;23.350;2024-01-07T11:17:43;125.33;;;117.30;;
2035;SDS011;23642;42.658;23.350;2024-01-07T11:20:14;127.83;;;119.00;;
2035;SDS011;23642;42.658;23.350;2024-01-07T11:22:54;125.63;;;117.20;;
2035;SDS011;23642;42.658;23.350;2024-01-07T11:25:59;126.27;;;117.93;;
2035;SDS011;23642;42.658;23.350;2024-01-07T11:28:49;127.43;;;117.70;;
2035;SDS011;23642;42.658;23.350;2024-01-07T11:31:45;125.13;;;116.77;;
2035;SDS011;23642;42.658;23.350;2024-01-07T11:37:26;127.60;;;118.30;;
2035;SDS011;23642;42.658;23.350;2024-01-07T11:40:06;126.17;;;117.87;;
2035;SDS011;23642;42.658;23.350;2024-01-07T11:42:45;127.60;;;118.47;;
2035;SDS011;23642;42.658;23.350;2024-01-07T11:45:13;126.80;;;118.70;;
2035;SDS011;23642;42.658;23.350;2024-01-07T11:48:13;127.40;;;119.30;;
2035;SDS011;23642;42.658;23.350;2024-01-07T11:50:57;126.60;;;118.50;;
2035;SDS011;23642;42.658;23.350;2024-01-07T11:53:29;124.50;;;116.57;;
2035;SDS011;23642;42.658;23.350;2024-01-07T11:55:57;126.10;;;117.57;;
2035;SDS011;23642;42.658;23.350;2024-01-07T11:58:38;131.83;;;121.57;;
2035;SDS011;23642;42.658;23.350;2024-01-07T12:01:25;125.77;;;117.30;;
2035;SDS011;23642;42.658;23.350;2024-01-07T12:04:22;132.20;;;122.10;;
2035;SDS011;23642;42.658;23.350;2024-01-07T12:07:08;129.00;;;120.60;;
2035;SDS011;23642;42.658;23.350;2024-01-07T12:10:02;130.20;;;121.23;;
2035;SDS011;23642;42.658;23.350;2024-01-07T12:13:05;129.37;;;120.97;;
2035;SDS011;23642;42.658;23.350;2024-01-07T12:16:14;127.67;;;119.40;;
2035;SDS011;23642;42.658;23.350;2024-01-07T12:18:55;127.90;;;119.07;;
2035;SDS011;23642;42.658;23.350;2024-01-07T12:21:28;131.90;;;121.77;;
2035;SDS011;23642;42.658;23.350;2024-01-07T12:24:08;125.70;;;117.20;;
2035;SDS011;23642;42.658;23.350;2024-01-07T12:26:39;131.33;;;122.50;;
2035;SDS011;23642;42.658;23.350;2024-01-07T12:29:16;131.20;;;122.57;;
2035;SDS011;23642;42.658;23.350;2024-01-07T12:31:50;131.33;;;122.27;;
2035;SDS011;23642;42.658;23.350;2024-01-07T12:34:18;128.43;;;119.03;;
2035;SDS011;23642;42.658;23.350;2024-01-07T12:37:03;130.27;;;120.37;;
2035;SDS011;23642;42.658;23.350;2024-01-07T12:40:08;131.40;;;120.63;;
2035;SDS011;23642;42.658;23.350;2024-01-07T12:42:47;129.37;;;119.80;;
2035;SDS011;23642;42.658;23.350;2024-01-07T12:45:26;128.00;;;118.70;;
2035;SDS011;23642;42.658;23.350;2024-01-07T12:47:55;129.30;;;120.53;;
2035;SDS011;23642;42.658;23.350;2024-01-07T12:50:28;127.83;;;118.37;;
2035;SDS011;23642;42.658;23.350;2024-01-07T12:52:57;131.03;;;121.70;;
2035;SDS011;23642;42.658;23.350;2024-01-07T12:55:29;130.50;;;121.73;;
2035;SDS011;23642;42.658;23.350;2024-01-07T12:57:56;128.27;;;119.13;;
2035;SDS011;23642;42.658;23.350;2024-01-07T13:00:28;129.03;;;120.20;;
2035;SDS011;23642;42.658;23.350;2024-01-07T13:02:55;127.87;;;118.50;;
2035;SDS011;23642;42.658;23.350;2024-01-07T13:05:25;131.73;;;122.93;;
2035;SDS011;23642;42.658;23.350;2024-01-07T13:07:53;127.77;;;119.47;;
2035;SDS011;23642;42.658;23.350;2024-01-07T13:10:20;127.80;;;119.30;;
2035;SDS011;23642;42.658;23.350;2024-01-07T13:12:52;129.53;;;120.83;;
2035;SDS011;23642;42.658;23.350;2024-01-07T13:15:27;128.90;;;120.60;;
2035;SDS011;23642;42.658;23.350;2024-01-07T13:18:21;130.90;;;122.10;;
2035;SDS011;23642;42.658;23.350;2024-01-07T13:20:56;128.03;;;119.57;;
2035;SDS011;23642;42.658;23.350;2024-01-07T13:23:28;130.83;;;121.93;;
2035;SDS011;23642;42.658;23.350;2024-01-07T13:26:00;129.27;;;120.77;;
2035;SDS011;23642;42.658;23.350;2024-01-07T13:28:37;131.93;;;122.60;;
2035;SDS011;23642;42.658;23.350;2024-01-07T13:31:23;128.70;;;120.20;;
2035;SDS011;23642;42.658;23.350;2024-01-07T13:34:00;130.90;;;121.73;;
2035;SDS011;23642;42.658;23.350;2024-01-07T13:36:35;128.80;;;120.40;;
2035;SDS011;23642;42.658;23.350;2024-01-07T13:39:02;130.27;;;121.77;;
2035;SDS011;23642;42.658;23.350;2024-01-07T13:41:33;126.83;;;118.50;;
2035;SDS011;23642;42.658;23.350;2024-01-07T13:44:03;129.50;;;120.90;;
2035;SDS011;23642;42.658;23.350;2024-01-07T13:46:32;129.20;;;120.30;;
2035;SDS011;23642;42.658;23.350;2024-01-07T13:49:01;127.43;;;119.03;;
2035;SDS011;23642;42.658;23.350;2024-01-07T13:51:30;131.20;;;122.40;;
2035;SDS011;23642;42.658;23.350;2024-01-07T13:54:06;129.83;;;121.20;;
2035;SDS011;23642;42.658;23.350;2024-01-07T13:56:35;130.30;;;121.30;;
2035;SDS011;23642;42.658;23.350;2024-01-07T13:59:09;130.87;;;122.13;;
2035;SDS011;23642;42.658;23.350;2024-01-07T14:01:36;130.30;;;121.23;;
2035;SDS011;23642;42.658;23.350;2024-01-07T14:04:07;131.40;;;122.80;;
2035;SDS011;23642;42.658;23.350;2024-01-07T14:09:33;131.97;;;123.27;;
2035;SDS011;23642;42.658;23.350;2024-01-07T14:12:01;132.73;;;123.63;;
2035;SDS011;23642;42.658;23.350;2024-01-07T14:14:33;129.10;;;120.40;;
2035;SDS011;23642;42.658;23.350;2024-01-07T14:17:04;138.23;;;126.60;;
2035;SDS011;23642;42.658;23.350;2024-01-07T14:19:38;133.03;;;123.50;;
2035;SDS011;23642;42.658;23.350;2024-01-07T14:22:10;129.90;;;121.20;;
2035;SDS011;23642;42.658;23.350;2024-01-07T14:24:43;132.40;;;123.20;;
2035;SDS011;23642;42.658;23.350;2024-01-07T14:27:13;132.57;;;123.87;;
2035;SDS011;23642;42.658;23.350;2024-01-07T14:29:51;132.10;;;122.70;;
2035;SDS011;23642;42.658;23.350;2024-01-07T14:32:28;134.57;;;124.87;;
2035;SDS011;23642;42.658;23.350;2024-01-07T14:35:00;132.80;;;124.20;;
2035;SDS011;23642;42.658;23.350;2024-01-07T14:37:29;131.30;;;122.40;;
2035;SDS011;23642;42.658;23.350;2024-01-07T14:39:59;128.90;;;120.50;;
2035;SDS011;23642;42.658;23.350;2024-01-07T14:42:32;134.20;;;125.10;;
2035;SDS011;23642;42.658;23.350;2024-01-07T14:45:16;133.37;;;124.17;;
2035;SDS011;23642;42.658;23.350;2024-01-07T14:47:46;132.10;;;122.47;;
2035;SDS011;23642;42.658;23.350;2024-01-07T14:50:17;135.30;;;125.67;;
2035;SDS011;23642;42.658;23.350;2024-01-07T14:52:47;130.90;;;122.23;;
2035;SDS011;23642;42.658;23.350;2024-01-07T14:55:31;132.97;;;123.80;;